sensor_id;sensor_type;location;lat;lon;timestamp;P1;durP1;ratioP1;P2;durP2;ratioP2
18445;SDS011;9352;50.888;4.466;2024-02-21T00:02:10;25.98;;;7.95;;
18445;SDS011;9352;50.888;4.466;2024-02-21T00:04:37;24.33;;;7.85;;
18445;SDS011;9352;50.888;4.466;2024-02-21T00:07:04;27.50;;;7.88;;
18445;SDS011;9352;50.888;4.466;2024-02-21T00:09:31;29.35;;;8.63;;
18445;SDS011;9352;50.888;4.466;2024-02-21T00:11:59;24.95;;;7.78;;
18445;SDS011;9352;50.888;4.466;2024-02-21T00:14:26;30.27;;;8.07;;
18445;SDS011;9352;50.888;4.466;2024-02-21T00:16:53;26.00;;;7.95;;
18445;SDS011;9352;50.888;4.466;2024-02-21T00:19:19;25.92;;;8.23;;
18445;SDS011;9352;50.888;4.466;2024-02-21T00:21:47;27.10;;;7.75;;
18445;SDS011;9352;50.888;4.466;2024-02-21T00:24:14;25.73;;;7.60;;
18445;SDS011;9352;50.888;4.466;2024-02-21T00:26:41;21.10;;;8.30;;
18445;SDS011;9352;50.888;4.466;2024-02-21T00:29:09;25.58;;;7.90;;
18445;SDS011;9352;50.888;4.466;2024-02-21T00:31:36;28.90;;;7.88;;
18445;SDS011;9352;50.888;4.466;2024-02-21T00:34:03;28.10;;;8.18;;
18445;SDS011;9352;50.888;4.466;2024-02-21T00:36:30;25.15;;;7.43;;
18445;SDS011;9352;50.888;4.466;2024-02-21T00:38:57;19.23;;;7.32;;
18445;SDS011;9352;50.888;4.466;2024-02-21T00:41:24;22.08;;;7.32;;
18445;SDS011;9352;50.888;4.466;2024-02-21T00:43:51;20.73;;;7.65;;
18445;SDS011;9352;50.888;4.466;2024-02-21T00:46:19;17.85;;;5.93;;
18445;SDS011;9352;50.888;4.466;2024-02-21T00:48:46;22.92;;;7.35;;
18445;SDS011;9352;50.888;4.466;2024-02-21T00:51:13;23.77;;;6.25;;
18445;SDS011;9352;50.888;4.466;2024-02-21T00:53:40;24.70;;;7.07;;
18445;SDS011;9352;50.888;4.466;2024-02-21T00:56:07;19.30;;;6.35;;
18445;SDS011;9352;50.888;4.466;2024-02-21T00:58:34;19.58;;;6.68;;
18445;SDS011;9352;50.888;4.466;2024-02-21T01:01:00;16.27;;;5.75;;
18445;SDS011;9352;50.888;4.466;2024-02-21T01:03:29;17.25;;;5.85;;
18445;SDS011;9352;50.888;4.466;2024-02-21T01:05:56;17.05;;;6.05;;
18445;SDS011;9352;50.888;4.466;2024-02-21T01:08:23;20.10;;;6.45;;
18445;SDS011;9352;50.888;4.466;2024-02-21T01:10:50;18.88;;;5.95;;
18445;SDS011;9352;50.888;4.466;2024-02-21T01:13:17;22.45;;;6.70;;
18445;SDS011;9352;50.888;4.466;2024-02-21T01:15:44;22.25;;;6.57;;
18445;SDS011;9352;50.888;4.466;2024-02-21T01:18:11;15.18;;;6.75;;
18445;SDS011;9352;50.888;4.466;2024-02-21T01:20:39;18.40;;;7.00;;
18445;SDS011;9352;50.888;4.466;2024-02-21T01:23:06;18.77;;;6.82;;
18445;SDS011;9352;50.888;4.466;2024-02-21T01:25:33;18.52;;;6.85;;
18445;SDS011;9352;50.888;4.466;2024-02-21T01:27:59;25.67;;;7.80;;
18445;SDS011;9352;50.888;4.466;2024-02-21T01:30:26;20.92;;;7.00;;
18445;SDS011;9352;50.888;4.466;2024-02-21T01:32:53;19.45;;;7.68;;
18445;SDS011;9352;50.888;4.466;2024-02-21T01:35:20;20.52;;;7.35;;
18445;SDS011;9352;50.888;4.466;2024-02-21T01:37:48;21.50;;;6.82;;
18445;SDS011;9352;50.888;4.466;2024-02-21T01:40:16;25.60;;;7.70;;
18445;SDS011;9352;50.888;4.466;2024-02-21T01:42:44;24.55;;;6.88;;
18445;SDS011;9352;50.888;4.466;2024-02-21T01:45:12;26.58;;;7.60;;
18445;SDS011;9352;50.888;4.466;2024-02-21T01:47:40;21.05;;;7.35;;
18445;SDS011;9352;50.888;4.466;2024-02-21T01:50:07;27.55;;;8.30;;
18445;SDS011;9352;50.888;4.466;2024-02-21T01:52:35;28.23;;;7.75;;
18445;SDS011;9352;50.888;4.466;2024-02-21T01:55:05;24.15;;;7.90;;
18445;SDS011;9352;50.888;4.466;2024-02-21T01:57:33;21.88;;;8.60;;
18445;SDS011;9352;50.888;4.466;2024-02-21T02:00:00;25.25;;;8.75;;
18445;SDS011;9352;50.888;4.466;2024-02-21T02:02:27;24.73;;;8.88;;
18445;SDS011;9352;50.888;4.466;2024-02-21T02:04:55;29.60;;;8.82;;
18445;SDS011;9352;50.888;4.466;2024-02-21T02:07:23;27.25;;;9.82;;
18445;SDS011;9352;50.888;4.466;2024-02-21T02:09:50;30.45;;;9.75;;
18445;SDS011;9352;50.888;4.466;2024-02-21T02:12:18;28.23;;;10.20;;
18445;SDS011;9352;50.888;4.466;2024-02-21T02:14:45;31.73;;;9.82;;
18445;SDS011;9352;50.888;4.466;2024-02-21T02:17:12;29.75;;;8.90;;
18445;SDS011;9352;50.888;4.466;2024-02-21T02:19:39;23.83;;;9.27;;
18445;SDS011;9352;50.888;4.466;2024-02-21T02:22:07;29.17;;;9.73;;
18445;SDS011;9352;50.888;4.466;2024-02-21T02:24:41;29.60;;;8.98;;
18445;SDS011;9352;50.888;4.466;2024-02-21T02:27:08;32.55;;;9.10;;
18445;SDS011;9352;50.888;4.466;2024-02-21T02:29:35;21.92;;;8.75;;
18445;SDS011;9352;50.888;4.466;2024-02-21T02:32:02;26.48;;;9.38;;
18445;SDS011;9352;50.888;4.466;2024-02-21T02:34:29;28.88;;;8.18;;
18445;SDS011;9352;50.888;4.466;2024-02-21T02:36:56;30.23;;;8.43;;
18445;SDS011;9352;50.888;4.466;2024-02-21T02:39:23;28.85;;;8.55;;
18445;SDS011;9352;50.888;4.466;2024-02-21T02:41:51;26.85;;;8.60;;
18445;SDS011;9352;50.888;4.466;2024-02-21T02:44:18;27.80;;;8.48;;
18445;SDS011;9352;50.888;4.466;2024-02-21T02:46:45;28.60;;;8.55;;
18445;SDS011;9352;50.888;4.466;2024-02-21T02:49:12;22.33;;;8.35;;
18445;SDS011;9352;50.888;4.466;2024-02-21T02:51:40;22.63;;;7.75;;
18445;SDS011;9352;50.888;4.466;2024-02-21T02:54:08;25.45;;;7.63;;
18445;SDS011;9352;50.888;4.466;2024-02-21T02:56:35;17.90;;;7.50;;
18445;SDS011;9352;50.888;4.466;2024-02-21T02:59:03;20.98;;;7.97;;
18445;SDS011;9352;50.888;4.466;2024-02-21T03:01:33;30.00;;;8.02;;
18445;SDS011;9352;50.888;4.466;2024-02-21T03:04:00;21.63;;;7.45;;
18445;SDS011;9352;50.888;4.466;2024-02-21T03:06:27;18.40;;;7.47;;
18445;SDS011;9352;50.888;4.466;2024-02-21T03:08:54;22.63;;;7.72;;
18445;SDS011;9352;50.888;4.466;2024-02-21T03:11:21;21.55;;;7.35;;
18445;SDS011;9352;50.888;4.466;2024-02-21T03:13:53;20.63;;;7.82;;
18445;SDS011;9352;50.888;4.466;2024-02-21T03:16:23;23.83;;;7.78;;
18445;SDS011;9352;50.888;4.466;2024-02-21T03:18:49;21.17;;;7.55;;
18445;SDS011;9352;50.888;4.466;2024-02-21T03:21:16;22.35;;;7.70;;
18445;SDS011;9352;50.888;4.466;2024-02-21T03:23:43;22.40;;;7.63;;
18445;SDS011;9352;50.888;4.466;2024-02-21T03:26:10;26.63;;;8.10;;
18445;SDS011;9352;50.888;4.466;2024-02-21T03:28:37;19.30;;;8.13;;
18445;SDS011;9352;50.888;4.466;2024-02-21T03:31:04;15.57;;;6.93;;
18445;SDS011;9352;50.888;4.466;2024-02-21T03:33:33;19.48;;;7.80;;
18445;SDS011;9352;50.888;4.466;2024-02-21T03:35:59;35.45;;;7.80;;
18445;SDS011;9352;50.888;4.466;2024-02-21T03:38:26;25.42;;;8.48;;
18445;SDS011;9352;50.888;4.466;2024-02-21T03:40:53;19.02;;;7.00;;
18445;SDS011;9352;50.888;4.466;2024-02-21T03:43:20;17.88;;;7.22;;
18445;SDS011;9352;50.888;4.466;2024-02-21T03:45:47;17.60;;;7.35;;
18445;SDS011;9352;50.888;4.466;2024-02-21T03:48:14;15.48;;;6.85;;
18445;SDS011;9352;50.888;4.466;2024-02-21T03:50:42;21.73;;;7.03;;
18445;SDS011;9352;50.888;4.466;2024-02-21T03:53:09;24.80;;;7.90;;
18445;SDS011;9352;50.888;4.466;2024-02-21T03:55:37;16.23;;;7.20;;
18445;SDS011;9352;50.888;4.466;2024-02-21T03:58:04;20.15;;;7.65;;
18445;SDS011;9352;50.888;4.466;2024-02-21T04:00:31;26.13;;;8.48;;
18445;SDS011;9352;50.888;4.466;2024-02-21T04:02:58;22.08;;;7.95;;
18445;SDS011;9352;50.888;4.466;2024-02-21T04:05:25;14.80;;;7.40;;
18445;SDS011;9352;50.888;4.466;2024-02-21T04:07:53;24.10;;;7.88;;
18445;SDS011;9352;50.888;4.466;2024-02-21T04:10:20;28.00;;;8.55;;
18445;SDS011;9352;50.888;4.466;2024-02-21T04:12:47;29.35;;;8.82;;
18445;SDS011;9352;50.888;4.466;2024-02-21T04:15:15;27.80;;;8.85;;
18445;SDS011;9352;50.888;4.466;2024-02-21T04:17:42;20.77;;;8.38;;
18445;SDS011;9352;50.888;4.466;2024-02-21T04:20:14;23.90;;;8.85;;
18445;SDS011;9352;50.888;4.466;2024-02-21T04:22:42;23.27;;;8.90;;
18445;SDS011;9352;50.888;4.466;2024-02-21T04:25:11;25.88;;;9.02;;
18445;SDS011;9352;50.888;4.466;2024-02-21T04:27:39;31.17;;;9.40;;
18445;SDS011;9352;50.888;4.466;2024-02-21T04:30:06;24.05;;;8.90;;
18445;SDS011;9352;50.888;4.466;2024-02-21T04:32:34;21.92;;;8.60;;
18445;SDS011;9352;50.888;4.466;2024-02-21T04:35:01;26.60;;;9.38;;
18445;SDS011;9352;50.888;4.466;2024-02-21T04:37:28;23.33;;;8.23;;
18445;SDS011;9352;50.888;4.466;2024-02-21T04:39:55;23.67;;;8.48;;
18445;SDS011;9352;50.888;4.466;2024-02-21T04:42:24;30.63;;;8.68;;
18445;SDS011;9352;50.888;4.466;2024-02-21T04:44:51;24.40;;;8.38;;
18445;SDS011;9352;50.888;4.466;2024-02-21T04:47:18;18.27;;;8.63;;
18445;SDS011;9352;50.888;4.466;2024-02-21T04:49:45;17.90;;;8.63;;
18445;SDS011;9352;50.888;4.466;2024-02-21T04:52:12;21.48;;;8.50;;
18445;SDS011;9352;50.888;4.466;2024-02-21T04:54:39;19.52;;;8.27;;
18445;SDS011;9352;50.888;4.466;2024-02-21T04:57:06;29.33;;;9.32;;
18445;SDS011;9352;50.888;4.466;2024-02-21T04:59:36;28.05;;;8.63;;
18445;SDS011;9352;50.888;4.466;2024-02-21T05:02:03;31.00;;;8.77;;
18445;SDS011;9352;50.888;4.466;2024-02-21T05:04:30;22.67;;;8.25;;
18445;SDS011;9352;50.888;4.466;2024-02-21T05:06:57;23.85;;;8.38;;
18445;SDS011;9352;50.888;4.466;2024-02-21T05:09:26;18.90;;;7.80;;
18445;SDS011;9352;50.888;4.466;2024-02-21T05:11:53;20.38;;;8.07;;
18445;SDS011;9352;50.888;4.466;2024-02-21T05:14:20;24.85;;;8.23;;
18445;SDS011;9352;50.888;4.466;2024-02-21T05:16:48;19.98;;;7.13;;
18445;SDS011;9352;50.888;4.466;2024-02-21T05:19:15;18.98;;;8.20;;
18445;SDS011;9352;50.888;4.466;2024-02-21T05:21:42;19.40;;;8.07;;
18445;SDS011;9352;50.888;4.466;2024-02-21T05:24:09;20.40;;;8.23;;
18445;SDS011;9352;50.888;4.466;2024-02-21T05:26:35;16.92;;;7.05;;
18445;SDS011;9352;50.888;4.466;2024-02-21T05:29:02;20.15;;;7.13;;
18445;SDS011;9352;50.888;4.466;2024-02-21T05:31:42;18.48;;;7.00;;
18445;SDS011;9352;50.888;4.466;2024-02-21T05:34:23;23.83;;;7.43;;
18445;SDS011;9352;50.888;4.466;2024-02-21T05:36:50;19.30;;;7.53;;
18445;SDS011;9352;50.888;4.466;2024-02-21T05:39:17;20.40;;;7.93;;
18445;SDS011;9352;50.888;4.466;2024-02-21T05:41:44;20.27;;;7.38;;
18445;SDS011;9352;50.888;4.466;2024-02-21T05:44:11;15.30;;;6.65;;
18445;SDS011;9352;50.888;4.466;2024-02-21T05:46:38;21.60;;;7.60;;
18445;SDS011;9352;50.888;4.466;2024-02-21T05:49:05;18.98;;;7.35;;
18445;SDS011;9352;50.888;4.466;2024-02-21T05:51:33;27.42;;;8.10;;
18445;SDS011;9352;50.888;4.466;2024-02-21T05:54:01;17.70;;;7.22;;
18445;SDS011;9352;50.888;4.466;2024-02-21T05:56:28;15.23;;;6.65;;
18445;SDS011;9352;50.888;4.466;2024-02-21T05:58:55;15.80;;;6.88;;
18445;SDS011;9352;50.888;4.466;2024-02-21T06:01:22;20.15;;;6.90;;
18445;SDS011;9352;50.888;4.466;2024-02-21T06:03:49;17.35;;;7.07;;
18445;SDS011;9352;50.888;4.466;2024-02-21T06:06:16;17.15;;;6.53;;
18445;SDS011;9352;50.888;4.466;2024-02-21T06:08:44;19.73;;;6.50;;
18445;SDS011;9352;50.888;4.466;2024-02-21T06:11:11;17.75;;;6.75;;
18445;SDS011;9352;50.888;4.466;2024-02-21T06:13:40;18.83;;;6.22;;
18445;SDS011;9352;50.888;4.466;2024-02-21T06:16:07;17.08;;;6.28;;
18445;SDS011;9352;50.888;4.466;2024-02-21T06:18:34;13.88;;;6.03;;
18445;SDS011;9352;50.888;4.466;2024-02-21T06:21:02;16.00;;;5.68;;
18445;SDS011;9352;50.888;4.466;2024-02-21T06:23:29;14.82;;;6.05;;
18445;SDS011;9352;50.888;4.466;2024-02-21T06:25:57;12.73;;;5.57;;
18445;SDS011;9352;50.888;4.466;2024-02-21T06:28:24;9.02;;;5.10;;
18445;SDS011;9352;50.888;4.466;2024-02-21T06:30:51;13.23;;;5.47;;
18445;SDS011;9352;50.888;4.466;2024-02-21T06:33:18;18.83;;;5.60;;
18445;SDS011;9352;50.888;4.466;2024-02-21T06:35:47;11.68;;;5.40;;
18445;SDS011;9352;50.888;4.466;2024-02-21T06:38:17;12.88;;;5.82;;
18445;SDS011;9352;50.888;4.466;2024-02-21T06:40:44;7.95;;;4.95;;
18445;SDS011;9352;50.888;4.466;2024-02-21T06:43:16;11.70;;;5.40;;
18445;SDS011;9352;50.888;4.466;2024-02-21T06:45:44;9.05;;;4.85;;
18445;SDS011;9352;50.888;4.466;2024-02-21T06:48:12;12.88;;;5.30;;
18445;SDS011;9352;50.888;4.466;2024-02-21T06:50:39;7.97;;;5.15;;
18445;SDS011;9352;50.888;4.466;2024-02-21T06:53:06;14.95;;;5.40;;
18445;SDS011;9352;50.888;4.466;2024-02-21T06:55:33;14.57;;;5.45;;
18445;SDS011;9352;50.888;4.466;2024-02-21T06:58:00;16.80;;;5.57;;
18445;SDS011;9352;50.888;4.466;2024-02-21T07:00:29;13.98;;;6.18;;
18445;SDS011;9352;50.888;4.466;2024-02-21T07:02:56;18.05;;;6.28;;
18445;SDS011;9352;50.888;4.466;2024-02-21T07:05:23;11.98;;;6.30;;
18445;SDS011;9352;50.888;4.466;2024-02-21T07:07:50;17.15;;;6.43;;
18445;SDS011;9352;50.888;4.466;2024-02-21T07:10:17;16.95;;;6.60;;
18445;SDS011;9352;50.888;4.466;2024-02-21T07:12:44;12.02;;;6.30;;
18445;SDS011;9352;50.888;4.466;2024-02-21T07:15:10;16.02;;;6.70;;
18445;SDS011;9352;50.888;4.466;2024-02-21T07:17:39;14.13;;;7.30;;
18445;SDS011;9352;50.888;4.466;2024-02-21T07:20:06;15.63;;;7.07;;
18445;SDS011;9352;50.888;4.466;2024-02-21T07:22:34;12.20;;;6.43;;
18445;SDS011;9352;50.888;4.466;2024-02-21T07:25:01;16.98;;;8.40;;
18445;SDS011;9352;50.888;4.466;2024-02-21T07:27:28;13.52;;;8.02;;
18445;SDS011;9352;50.888;4.466;2024-02-21T07:29:56;15.80;;;7.90;;
18445;SDS011;9352;50.888;4.466;2024-02-21T07:32:23;15.70;;;7.18;;
18445;SDS011;9352;50.888;4.466;2024-02-21T07:34:51;19.80;;;7.45;;
18445;SDS011;9352;50.888;4.466;2024-02-21T07:37:18;12.93;;;7.60;;
18445;SDS011;9352;50.888;4.466;2024-02-21T07:39:45;17.02;;;7.80;;
18445;SDS011;9352;50.888;4.466;2024-02-21T07:42:12;11.88;;;6.97;;
18445;SDS011;9352;50.888;4.466;2024-02-21T07:44:39;12.63;;;6.32;;
18445;SDS011;9352;50.888;4.466;2024-02-21T07:47:06;16.88;;;7.28;;
18445;SDS011;9352;50.888;4.466;2024-02-21T07:49:33;14.55;;;7.13;;
18445;SDS011;9352;50.888;4.466;2024-02-21T07:52:08;16.60;;;6.85;;
18445;SDS011;9352;50.888;4.466;2024-02-21T07:54:35;12.05;;;6.88;;
18445;SDS011;9352;50.888;4.466;2024-02-21T07:57:02;16.20;;;7.15;;
18445;SDS011;9352;50.888;4.466;2024-02-21T07:59:29;15.10;;;7.88;;
18445;SDS011;9352;50.888;4.466;2024-02-21T08:01:56;11.27;;;7.07;;
18445;SDS011;9352;50.888;4.466;2024-02-21T08:04:23;32.75;;;7.65;;
18445;SDS011;9352;50.888;4.466;2024-02-21T08:06:51;12.38;;;6.65;;
18445;SDS011;9352;50.888;4.466;2024-02-21T08:09:22;14.68;;;6.13;;
18445;SDS011;9352;50.888;4.466;2024-02-21T08:11:49;16.10;;;6.43;;
18445;SDS011;9352;50.888;4.466;2024-02-21T08:14:16;10.27;;;5.88;;
18445;SDS011;9352;50.888;4.466;2024-02-21T08:16:43;15.32;;;6.15;;
18445;SDS011;9352;50.888;4.466;2024-02-21T08:19:10;17.58;;;6.40;;
18445;SDS011;9352;50.888;4.466;2024-02-21T08:21:37;13.50;;;5.82;;
18445;SDS011;9352;50.888;4.466;2024-02-21T08:24:04;12.95;;;6.10;;
18445;SDS011;9352;50.888;4.466;2024-02-21T08:26:32;15.23;;;6.03;;
18445;SDS011;9352;50.888;4.466;2024-02-21T08:29:01;14.70;;;5.65;;
18445;SDS011;9352;50.888;4.466;2024-02-21T08:31:28;12.63;;;5.55;;
18445;SDS011;9352;50.888;4.466;2024-02-21T08:33:56;9.63;;;5.60;;
18445;SDS011;9352;50.888;4.466;2024-02-21T08:36:27;15.77;;;5.78;;
18445;SDS011;9352;50.888;4.466;2024-02-21T08:38:54;13.18;;;5.40;;
18445;SDS011;9352;50.888;4.466;2024-02-21T08:41:21;14.20;;;6.03;;
18445;SDS011;9352;50.888;4.466;2024-02-21T08:43:51;11.88;;;5.45;;
18445;SDS011;9352;50.888;4.466;2024-02-21T08:46:19;17.90;;;5.50;;
18445;SDS011;9352;50.888;4.466;2024-02-21T08:48:46;14.13;;;5.55;;
18445;SDS011;9352;50.888;4.466;2024-02-21T08:51:13;16.23;;;6.05;;
18445;SDS011;9352;50.888;4.466;2024-02-21T08:53:40;9.32;;;5.38;;
18445;SDS011;9352;50.888;4.466;2024-02-21T08:56:07;18.75;;;5.22;;
18445;SDS011;9352;50.888;4.466;2024-02-21T08:58:34;14.27;;;6.00;;
18445;SDS011;9352;50.888;4.466;2024-02-21T09:01:03;11.10;;;5.15;;
18445;SDS011;9352;50.888;4.466;2024-02-21T09:03:31;12.02;;;5.05;;
18445;SDS011;9352;50.888;4.466;2024-02-21T09:05:57;9.55;;;4.70;;
18445;SDS011;9352;50.888;4.466;2024-02-21T09:08:24;13.27;;;4.55;;
18445;SDS011;9352;50.888;4.466;2024-02-21T09:10:51;11.60;;;5.50;;
18445;SDS011;9352;50.888;4.466;2024-02-21T09:13:18;12.88;;;4.63;;
18445;SDS011;9352;50.888;4.466;2024-02-21T09:15:45;12.68;;;4.93;;
18445;SDS011;9352;50.888;4.466;2024-02-21T09:18:14;15.73;;;4.72;;
18445;SDS011;9352;50.888;4.466;2024-02-21T09:20:41;8.65;;;5.07;;
18445;SDS011;9352;50.888;4.466;2024-02-21T09:23:08;17.52;;;4.93;;
18445;SDS011;9352;50.888;4.466;2024-02-21T09:25:35;12.57;;;4.93;;
18445;SDS011;9352;50.888;4.466;2024-02-21T09:28:02;9.45;;;4.25;;
18445;SDS011;9352;50.888;4.466;2024-02-21T09:30:31;7.57;;;4.30;;
18445;SDS011;9352;50.888;4.466;2024-02-21T09:32:58;13.90;;;4.45;;
18445;SDS011;9352;50.888;4.466;2024-02-21T09:35:27;11.40;;;4.00;;
18445;SDS011;9352;50.888;4.466;2024-02-21T09:37:54;9.30;;;4.25;;
18445;SDS011;9352;50.888;4.466;2024-02-21T09:40:21;9.90;;;4.20;;
18445;SDS011;9352;50.888;4.466;2024-02-21T09:42:49;13.85;;;4.75;;
18445;SDS011;9352;50.888;4.466;2024-02-21T09:45:25;18.58;;;6.18;;
18445;SDS011;9352;50.888;4.466;2024-02-21T09:47:57;11.75;;;4.03;;
18445;SDS011;9352;50.888;4.466;2024-02-21T09:50:54;10.75;;;4.32;;
18445;SDS011;9352;50.888;4.466;2024-02-21T09:53:22;6.90;;;3.70;;
18445;SDS011;9352;50.888;4.466;2024-02-21T09:55:50;7.25;;;3.47;;
18445;SDS011;9352;50.888;4.466;2024-02-21T09:58:18;11.93;;;3.97;;
18445;SDS011;9352;50.888;4.466;2024-02-21T10:00:45;10.50;;;4.40;;
18445;SDS011;9352;50.888;4.466;2024-02-21T10:03:12;9.50;;;4.03;;
18445;SDS011;9352;50.888;4.466;2024-02-21T10:05:45;10.63;;;4.20;;
18445;SDS011;9352;50.888;4.466;2024-02-21T10:08:16;11.30;;;4.32;;
18445;SDS011;9352;50.888;4.466;2024-02-21T10:10:43;9.27;;;4.00;;
18445;SDS011;9352;50.888;4.466;2024-02-21T10:13:21;9.23;;;3.45;;
18445;SDS011;9352;50.888;4.466;2024-02-21T10:16:00;11.93;;;4.07;;
18445;SDS011;9352;50.888;4.466;2024-02-21T10:18:27;6.00;;;3.30;;
18445;SDS011;9352;50.888;4.466;2024-02-21T10:20:59;12.88;;;3.90;;
18445;SDS011;9352;50.888;4.466;2024-02-21T10:23:41;8.38;;;3.78;;
18445;SDS011;9352;50.888;4.466;2024-02-21T10:26:09;13.15;;;4.57;;
18445;SDS011;9352;50.888;4.466;2024-02-21T10:28:36;10.82;;;3.97;;
18445;SDS011;9352;50.888;4.466;2024-02-21T10:31:07;13.55;;;4.28;;
18445;SDS011;9352;50.888;4.466;2024-02-21T10:33:35;8.38;;;3.55;;
18445;SDS011;9352;50.888;4.466;2024-02-21T10:36:06;11.25;;;3.78;;
18445;SDS011;9352;50.888;4.466;2024-02-21T10:38:34;9.98;;;3.80;;
18445;SDS011;9352;50.888;4.466;2024-02-21T10:41:03;11.57;;;3.80;;
18445;SDS011;9352;50.888;4.466;2024-02-21T10:43:31;10.60;;;3.75;;
18445;SDS011;9352;50.888;4.466;2024-02-21T10:46:04;7.30;;;3.50;;
18445;SDS011;9352;50.888;4.466;2024-02-21T10:48:34;14.00;;;3.80;;
18445;SDS011;9352;50.888;4.466;2024-02-21T10:51:11;11.35;;;3.90;;
18445;SDS011;9352;50.888;4.466;2024-02-21T10:53:44;11.05;;;3.60;;
18445;SDS011;9352;50.888;4.466;2024-02-21T10:56:24;10.88;;;4.57;;
18445;SDS011;9352;50.888;4.466;2024-02-21T10:58:54;12.70;;;4.10;;
18445;SDS011;9352;50.888;4.466;2024-02-21T11:01:23;9.73;;;3.95;;
18445;SDS011;9352;50.888;4.466;2024-02-21T11:03:52;10.23;;;3.83;;
18445;SDS011;9352;50.888;4.466;2024-02-21T11:06:20;16.15;;;3.92;;
18445;SDS011;9352;50.888;4.466;2024-02-21T11:08:58;11.15;;;3.40;;
18445;SDS011;9352;50.888;4.466;2024-02-21T11:11:30;13.45;;;3.85;;
18445;SDS011;9352;50.888;4.466;2024-02-21T11:14:06;7.20;;;3.50;;
18445;SDS011;9352;50.888;4.466;2024-02-21T11:16:35;8.68;;;3.47;;
18445;SDS011;9352;50.888;4.466;2024-02-21T11:19:04;9.98;;;3.58;;
18445;SDS011;9352;50.888;4.466;2024-02-21T11:21:35;11.48;;;3.40;;
18445;SDS011;9352;50.888;4.466;2024-02-21T11:24:02;7.32;;;3.00;;
18445;SDS011;9352;50.888;4.466;2024-02-21T11:26:31;10.82;;;3.60;;
18445;SDS011;9352;50.888;4.466;2024-02-21T11:28:59;8.63;;;2.83;;
18445;SDS011;9352;50.888;4.466;2024-02-21T11:31:37;9.43;;;2.80;;
18445;SDS011;9352;50.888;4.466;2024-02-21T11:34:08;10.38;;;3.10;;
18445;SDS011;9352;50.888;4.466;2024-02-21T11:36:35;13.80;;;2.65;;
18445;SDS011;9352;50.888;4.466;2024-02-21T11:39:03;13.75;;;3.25;;
18445;SDS011;9352;50.888;4.466;2024-02-21T11:41:32;10.75;;;3.20;;
18445;SDS011;9352;50.888;4.466;2024-02-21T11:43:59;5.55;;;2.60;;
18445;SDS011;9352;50.888;4.466;2024-02-21T11:46:25;6.78;;;2.83;;
18445;SDS011;9352;50.888;4.466;2024-02-21T11:48:52;6.63;;;3.30;;
18445;SDS011;9352;50.888;4.466;2024-02-21T11:51:21;6.90;;;2.83;;
18445;SDS011;9352;50.888;4.466;2024-02-21T11:53:50;7.32;;;2.90;;
18445;SDS011;9352;50.888;4.466;2024-02-21T11:56:17;6.30;;;3.17;;
18445;SDS011;9352;50.888;4.466;2024-02-21T11:58:46;12.35;;;3.45;;
18445;SDS011;9352;50.888;4.466;2024-02-21T12:01:13;12.85;;;3.65;;
18445;SDS011;9352;50.888;4.466;2024-02-21T12:03:40;7.97;;;3.13;;
18445;SDS011;9352;50.888;4.466;2024-02-21T12:06:14;15.25;;;3.70;;
18445;SDS011;9352;50.888;4.466;2024-02-21T12:08:44;9.07;;;3.30;;
18445;SDS011;9352;50.888;4.466;2024-02-21T12:11:15;5.70;;;2.97;;
18445;SDS011;9352;50.888;4.466;2024-02-21T12:13:44;11.35;;;3.70;;
18445;SDS011;9352;50.888;4.466;2024-02-21T12:16:14;6.22;;;3.08;;
18445;SDS011;9352;50.888;4.466;2024-02-21T12:18:43;15.15;;;3.83;;
18445;SDS011;9352;50.888;4.466;2024-02-21T12:21:10;7.75;;;3.50;;
18445;SDS011;9352;50.888;4.466;2024-02-21T12:23:37;11.95;;;3.90;;
18445;SDS011;9352;50.888;4.466;2024-02-21T12:26:05;9.00;;;3.53;;
18445;SDS011;9352;50.888;4.466;2024-02-21T12:28:33;11.10;;;4.00;;
18445;SDS011;9352;50.888;4.466;2024-02-21T12:31:01;7.93;;;3.33;;
18445;SDS011;9352;50.888;4.466;2024-02-21T12:33:29;8.98;;;3.47;;
18445;SDS011;9352;50.888;4.466;2024-02-21T12:35:56;8.68;;;3.33;;
18445;SDS011;9352;50.888;4.466;2024-02-21T12:38:23;5.57;;;3.60;;
18445;SDS011;9352;50.888;4.466;2024-02-21T12:40:50;12.18;;;4.10;;
18445;SDS011;9352;50.888;4.466;2024-02-21T12:43:17;11.55;;;4.43;;
18445;SDS011;9352;50.888;4.466;2024-02-21T12:45:44;8.18;;;3.58;;
18445;SDS011;9352;50.888;4.466;2024-02-21T12:48:13;9.95;;;3.65;;
18445;SDS011;9352;50.888;4.466;2024-02-21T12:50:40;6.72;;;3.50;;
18445;SDS011;9352;50.888;4.466;2024-02-21T12:53:14;10.43;;;3.50;;
18445;SDS011;9352;50.888;4.466;2024-02-21T12:55:41;9.60;;;4.28;;
18445;SDS011;9352;50.888;4.466;2024-02-21T12:58:08;6.65;;;3.63;;
18445;SDS011;9352;50.888;4.466;2024-02-21T13:00:34;8.38;;;3.50;;
18445;SDS011;9352;50.888;4.466;2024-02-21T13:03:02;14.77;;;3.50;;
18445;SDS011;9352;50.888;4.466;2024-02-21T13:05:31;8.50;;;3.08;;
18445;SDS011;9352;50.888;4.466;2024-02-21T13:07:58;7.47;;;3.75;;
18445;SDS011;9352;50.888;4.466;2024-02-21T13:10:25;13.98;;;3.67;;
18445;SDS011;9352;50.888;4.466;2024-02-21T13:12:52;14.57;;;4.00;;
18445;SDS011;9352;50.888;4.466;2024-02-21T13:15:19;9.00;;;4.10;;
18445;SDS011;9352;50.888;4.466;2024-02-21T13:17:46;12.90;;;3.95;;
18445;SDS011;9352;50.888;4.466;2024-02-21T13:20:13;19.45;;;4.22;;
18445;SDS011;9352;50.888;4.466;2024-02-21T13:22:42;6.65;;;3.55;;
18445;SDS011;9352;50.888;4.466;2024-02-21T13:25:08;6.25;;;3.47;;
18445;SDS011;9352;50.888;4.466;2024-02-21T13:27:35;10.00;;;3.88;;
18445;SDS011;9352;50.888;4.466;2024-02-21T13:30:02;7.65;;;3.92;;
18445;SDS011;9352;50.888;4.466;2024-02-21T13:32:32;8.68;;;3.70;;
18445;SDS011;9352;50.888;4.466;2024-02-21T13:34:58;9.48;;;3.88;;
18445;SDS011;9352;50.888;4.466;2024-02-21T13:37:27;10.05;;;3.80;;
18445;SDS011;9352;50.888;4.466;2024-02-21T13:39:56;8.77;;;3.92;;
18445;SDS011;9352;50.888;4.466;2024-02-21T13:42:22;12.98;;;4.25;;
18445;SDS011;9352;50.888;4.466;2024-02-21T13:44:52;12.68;;;4.30;;
18445;SDS011;9352;50.888;4.466;2024-02-21T13:47:19;10.00;;;4.72;;
18445;SDS011;9352;50.888;4.466;2024-02-21T13:49:46;6.13;;;3.45;;
18445;SDS011;9352;50.888;4.466;2024-02-21T13:52:14;8.43;;;3.97;;
18445;SDS011;9352;50.888;4.466;2024-02-21T13:54:42;9.43;;;3.70;;
18445;SDS011;9352;50.888;4.466;2024-02-21T13:57:10;8.50;;;4.32;;
18445;SDS011;9352;50.888;4.466;2024-02-21T13:59:37;6.80;;;3.58;;
18445;SDS011;9352;50.888;4.466;2024-02-21T14:02:04;13.85;;;4.53;;
18445;SDS011;9352;50.888;4.466;2024-02-21T14:04:33;14.15;;;3.88;;
18445;SDS011;9352;50.888;4.466;2024-02-21T14:07:00;10.18;;;3.80;;
18445;SDS011;9352;50.888;4.466;2024-02-21T14:09:27;7.35;;;4.32;;
18445;SDS011;9352;50.888;4.466;2024-02-21T14:11:54;8.35;;;3.83;;
18445;SDS011;9352;50.888;4.466;2024-02-21T14:14:23;10.07;;;4.15;;
18445;SDS011;9352;50.888;4.466;2024-02-21T14:16:50;9.32;;;3.70;;
18445;SDS011;9352;50.888;4.466;2024-02-21T14:19:17;8.52;;;3.90;;
18445;SDS011;9352;50.888;4.466;2024-02-21T14:21:44;9.80;;;4.15;;
18445;SDS011;9352;50.888;4.466;2024-02-21T14:24:11;9.63;;;4.15;;
18445;SDS011;9352;50.888;4.466;2024-02-21T14:26:38;7.22;;;4.13;;
18445;SDS011;9352;50.888;4.466;2024-02-21T14:29:06;9.18;;;4.28;;
18445;SDS011;9352;50.888;4.466;2024-02-21T14:31:34;9.52;;;3.97;;
18445;SDS011;9352;50.888;4.466;2024-02-21T14:34:01;14.20;;;4.50;;
18445;SDS011;9352;50.888;4.466;2024-02-21T14:36:28;8.32;;;4.55;;
18445;SDS011;9352;50.888;4.466;2024-02-21T14:38:55;12.55;;;5.75;;
18445;SDS011;9352;50.888;4.466;2024-02-21T14:41:22;13.38;;;4.72;;
18445;SDS011;9352;50.888;4.466;2024-02-21T14:43:49;14.23;;;5.07;;
18445;SDS011;9352;50.888;4.466;2024-02-21T14:46:16;7.40;;;4.05;;
18445;SDS011;9352;50.888;4.466;2024-02-21T14:48:45;9.35;;;4.00;;
18445;SDS011;9352;50.888;4.466;2024-02-21T14:51:12;11.75;;;4.45;;
18445;SDS011;9352;50.888;4.466;2024-02-21T14:53:39;8.65;;;4.03;;
18445;SDS011;9352;50.888;4.466;2024-02-21T14:56:12;10.13;;;3.75;;